This is the latest recevied weather packets stored in our database for station/object GW1597. If no packets are shown the sender has not sent any weather packets the latest 10 day(s).
| Time | Temp. | Humidity | Pressure | Rain* | Wind** | Luminosity | Snow |
|---|---|---|---|---|---|---|---|
| 1777388451 | 18.33° C | 95% | 989.8 hPa | 10.92 mm | - | - | - |
| 1777382664 | 15° C | 97% | 988.8 hPa | 10.92 mm | - | - | - |
| 1777380158 | 13.89° C | 97% | 989.1 hPa | 10.92 mm | - | - | - |
| 1777379789 | 13.89° C | 97% | 989.5 hPa | 10.92 mm | - | - | - |
| 1777379443 | 13.89° C | 97% | 989.5 hPa | 10.92 mm | - | - | - |
| 1777377651 | 13.33° C | 97% | 989.5 hPa | 10.92 mm | - | - | - |
| 1777376930 | 13.33° C | 97% | 989.5 hPa | 10.92 mm | - | - | - |
| 1777374051 | - | - | 988.1 hPa | 10.92 mm | - | - | - |
| 1777373323 | 12.78° C | 97% | 989.1 hPa | 10.92 mm | - | - | - |
| 1777371886 | 12.78° C | 97% | 990.8 hPa | 10.41 mm | - | - | - |
| 1777371509 | 12.78° C | 97% | 990.8 hPa | 10.41 mm | - | - | - |
| 1777367892 | 12.78° C | 97% | 991.5 hPa | 10.16 mm | - | - | - |
| 1777366827 | 12.78° C | 97% | 991.8 hPa | 9.65 mm | - | - | - |
| 1777366464 | 12.78° C | 96% | 992.2 hPa | 9.65 mm | - | - | - |
| 1777365750 | 12.78° C | 96% | 992.5 hPa | 9.4 mm | - | - | - |
| 1777363960 | 12.78° C | 96% | 988.4 hPa | 8.38 mm | - | - | - |
| 1777361787 | 12.78° C | 96% | 988.4 hPa | 6.6 mm | - | - | - |
| 1777360346 | 12.78° C | 96% | 988.8 hPa | 5.33 mm | - | - | - |
| 1777356025 | 13.89° C | 94% | 991.1 hPa | 0.76 mm | - | - | - |
| 1777350613 | 20° C | 48% | 989.1 hPa | 0 mm | - | - | - |
| 1777349561 | 20° C | 49% | 989.5 hPa | 0 mm | - | - | - |
| 1777348490 | 20° C | 48% | 989.1 hPa | 0 mm | - | - | - |
| 1777347395 | 20° C | 47% | 989.5 hPa | 0 mm | - | - | - |
| 1777346688 | 20.56° C | 47% | 989.5 hPa | 0 mm | - | - | - |
| 1777343791 | 21.11° C | 45% | 989.5 hPa | 0 mm | - | - | - |
* Rain since midnight (hover to see other rain measurements)
** Current wind speed in m/s (hover to see current wind gust speed)